sensor_id;sensor_type;location;lat;lon;timestamp;P1;durP1;ratioP1;P2;durP2;ratioP2
4821;SDS011;2425;47.794;13.068;2022-09-12T00:01:51;0.77;;;0.77;;
4821;SDS011;2425;47.794;13.068;2022-09-12T00:04:18;0.70;;;0.70;;
4821;SDS011;2425;47.794;13.068;2022-09-12T00:06:45;0.67;;;0.67;;
4821;SDS011;2425;47.794;13.068;2022-09-12T00:09:12;0.80;;;0.80;;
4821;SDS011;2425;47.794;13.068;2022-09-12T00:11:40;0.60;;;0.60;;
4821;SDS011;2425;47.794;13.068;2022-09-12T00:14:09;0.90;;;0.90;;
4821;SDS011;2425;47.794;13.068;2022-09-12T00:16:38;0.87;;;0.87;;
4821;SDS011;2425;47.794;13.068;2022-09-12T00:19:05;0.80;;;0.73;;
4821;SDS011;2425;47.794;13.068;2022-09-12T00:21:33;1.60;;;0.80;;
4821;SDS011;2425;47.794;13.068;2022-09-12T00:24:00;0.70;;;0.70;;
4821;SDS011;2425;47.794;13.068;2022-09-12T00:26:27;0.83;;;0.83;;
4821;SDS011;2425;47.794;13.068;2022-09-12T00:28:54;0.90;;;0.90;;
4821;SDS011;2425;47.794;13.068;2022-09-12T00:31:21;0.77;;;0.77;;
4821;SDS011;2425;47.794;13.068;2022-09-12T00:33:51;0.60;;;0.60;;
4821;SDS011;2425;47.794;13.068;2022-09-12T00:36:19;0.70;;;0.70;;
4821;SDS011;2425;47.794;13.068;2022-09-12T00:38:47;0.70;;;0.70;;
4821;SDS011;2425;47.794;13.068;2022-09-12T00:41:16;0.53;;;0.53;;
4821;SDS011;2425;47.794;13.068;2022-09-12T00:43:45;0.70;;;0.70;;
4821;SDS011;2425;47.794;13.068;2022-09-12T00:46:15;0.60;;;0.60;;
4821;SDS011;2425;47.794;13.068;2022-09-12T00:49:04;0.50;;;0.50;;
4821;SDS011;2425;47.794;13.068;2022-09-12T00:51:34;0.70;;;0.70;;
4821;SDS011;2425;47.794;13.068;2022-09-12T00:54:04;0.80;;;0.80;;
4821;SDS011;2425;47.794;13.068;2022-09-12T00:56:32;0.77;;;0.77;;
4821;SDS011;2425;47.794;13.068;2022-09-12T00:59:00;0.80;;;0.80;;
4821;SDS011;2425;47.794;13.068;2022-09-12T01:01:29;0.60;;;0.60;;
4821;SDS011;2425;47.794;13.068;2022-09-12T01:03:57;0.50;;;0.50;;
4821;SDS011;2425;47.794;13.068;2022-09-12T01:06:25;0.77;;;0.77;;
4821;SDS011;2425;47.794;13.068;2022-09-12T01:08:53;0.77;;;0.77;;
4821;SDS011;2425;47.794;13.068;2022-09-12T01:11:20;0.67;;;0.67;;
4821;SDS011;2425;47.794;13.068;2022-09-12T01:13:48;1.00;;;1.00;;
4821;SDS011;2425;47.794;13.068;2022-09-12T01:16:15;0.80;;;0.80;;
4821;SDS011;2425;47.794;13.068;2022-09-12T01:18:47;0.90;;;0.90;;
4821;SDS011;2425;47.794;13.068;2022-09-12T01:21:22;0.80;;;0.80;;
4821;SDS011;2425;47.794;13.068;2022-09-12T01:24:16;0.80;;;0.80;;
4821;SDS011;2425;47.794;13.068;2022-09-12T01:33:03;0.70;;;0.70;;
4821;SDS011;2425;47.794;13.068;2022-09-12T01:35:48;0.70;;;0.70;;
4821;SDS011;2425;47.794;13.068;2022-09-12T01:38:22;0.90;;;0.90;;
4821;SDS011;2425;47.794;13.068;2022-09-12T01:40:54;0.70;;;0.70;;
4821;SDS011;2425;47.794;13.068;2022-09-12T01:43:26;0.73;;;0.73;;
4821;SDS011;2425;47.794;13.068;2022-09-12T01:46:01;0.50;;;0.50;;
4821;SDS011;2425;47.794;13.068;2022-09-12T01:48:33;0.70;;;0.70;;
4821;SDS011;2425;47.794;13.068;2022-09-12T01:51:03;0.57;;;0.57;;
4821;SDS011;2425;47.794;13.068;2022-09-12T01:53:34;0.73;;;0.73;;
4821;SDS011;2425;47.794;13.068;2022-09-12T01:56:04;0.50;;;0.50;;
4821;SDS011;2425;47.794;13.068;2022-09-12T01:58:34;0.67;;;0.67;;
4821;SDS011;2425;47.794;13.068;2022-09-12T02:01:08;0.60;;;0.60;;
4821;SDS011;2425;47.794;13.068;2022-09-12T02:03:38;0.60;;;0.60;;
4821;SDS011;2425;47.794;13.068;2022-09-12T02:06:09;0.80;;;0.80;;
4821;SDS011;2425;47.794;13.068;2022-09-12T02:08:41;0.70;;;0.70;;
4821;SDS011;2425;47.794;13.068;2022-09-12T02:11:10;0.63;;;0.63;;
4821;SDS011;2425;47.794;13.068;2022-09-12T02:13:41;0.90;;;0.90;;
4821;SDS011;2425;47.794;13.068;2022-09-12T02:16:27;0.97;;;0.97;;
4821;SDS011;2425;47.794;13.068;2022-09-12T02:19:00;0.70;;;0.70;;
4821;SDS011;2425;47.794;13.068;2022-09-12T02:21:30;0.73;;;0.73;;
4821;SDS011;2425;47.794;13.068;2022-09-12T02:23:57;0.50;;;0.50;;
4821;SDS011;2425;47.794;13.068;2022-09-12T02:26:28;0.67;;;0.67;;
4821;SDS011;2425;47.794;13.068;2022-09-12T02:28:57;0.70;;;0.70;;
4821;SDS011;2425;47.794;13.068;2022-09-12T02:31:26;0.40;;;0.40;;
4821;SDS011;2425;47.794;13.068;2022-09-12T02:33:57;0.60;;;0.60;;
4821;SDS011;2425;47.794;13.068;2022-09-12T02:36:36;0.77;;;0.77;;
4821;SDS011;2425;47.794;13.068;2022-09-12T02:39:09;0.70;;;0.60;;
4821;SDS011;2425;47.794;13.068;2022-09-12T02:41:36;0.77;;;0.77;;
4821;SDS011;2425;47.794;13.068;2022-09-12T02:44:03;0.60;;;0.60;;
4821;SDS011;2425;47.794;13.068;2022-09-12T02:46:35;0.83;;;0.67;;
4821;SDS011;2425;47.794;13.068;2022-09-12T02:49:03;0.60;;;0.60;;
4821;SDS011;2425;47.794;13.068;2022-09-12T02:51:30;0.60;;;0.60;;
4821;SDS011;2425;47.794;13.068;2022-09-12T02:53:57;0.70;;;0.70;;
4821;SDS011;2425;47.794;13.068;2022-09-12T02:56:25;0.53;;;0.53;;
4821;SDS011;2425;47.794;13.068;2022-09-12T02:58:54;0.60;;;0.60;;
4821;SDS011;2425;47.794;13.068;2022-09-12T03:01:27;0.60;;;0.60;;
4821;SDS011;2425;47.794;13.068;2022-09-12T03:04:09;0.60;;;0.60;;
4821;SDS011;2425;47.794;13.068;2022-09-12T03:06:56;0.73;;;0.73;;
4821;SDS011;2425;47.794;13.068;2022-09-12T03:09:33;0.70;;;0.70;;
4821;SDS011;2425;47.794;13.068;2022-09-12T03:12:07;0.70;;;0.70;;
4821;SDS011;2425;47.794;13.068;2022-09-12T03:14:52;0.53;;;0.53;;
4821;SDS011;2425;47.794;13.068;2022-09-12T03:17:28;0.87;;;0.87;;
4821;SDS011;2425;47.794;13.068;2022-09-12T03:20:04;0.70;;;0.70;;
4821;SDS011;2425;47.794;13.068;2022-09-12T03:22:36;0.63;;;0.63;;
4821;SDS011;2425;47.794;13.068;2022-09-12T03:25:10;0.60;;;0.60;;
4821;SDS011;2425;47.794;13.068;2022-09-12T03:27:41;0.60;;;0.60;;
4821;SDS011;2425;47.794;13.068;2022-09-12T03:30:10;0.53;;;0.53;;
4821;SDS011;2425;47.794;13.068;2022-09-12T03:32:44;0.50;;;0.50;;
4821;SDS011;2425;47.794;13.068;2022-09-12T03:35:14;0.60;;;0.60;;
4821;SDS011;2425;47.794;13.068;2022-09-12T03:37:41;0.63;;;0.63;;
4821;SDS011;2425;47.794;13.068;2022-09-12T03:40:09;0.80;;;0.80;;
4821;SDS011;2425;47.794;13.068;2022-09-12T03:42:36;0.60;;;0.60;;
4821;SDS011;2425;47.794;13.068;2022-09-12T03:45:03;0.50;;;0.50;;
4821;SDS011;2425;47.794;13.068;2022-09-12T03:47:31;0.60;;;0.60;;
4821;SDS011;2425;47.794;13.068;2022-09-12T03:49:58;0.50;;;0.50;;
4821;SDS011;2425;47.794;13.068;2022-09-12T03:52:26;0.50;;;0.50;;
4821;SDS011;2425;47.794;13.068;2022-09-12T03:54:52;0.60;;;0.60;;
4821;SDS011;2425;47.794;13.068;2022-09-12T03:57:19;0.50;;;0.50;;
4821;SDS011;2425;47.794;13.068;2022-09-12T03:59:47;0.50;;;0.50;;
4821;SDS011;2425;47.794;13.068;2022-09-12T04:02:14;0.67;;;0.67;;
4821;SDS011;2425;47.794;13.068;2022-09-12T04:04:40;0.70;;;0.70;;
4821;SDS011;2425;47.794;13.068;2022-09-12T04:07:08;0.70;;;0.70;;
4821;SDS011;2425;47.794;13.068;2022-09-12T04:09:36;0.50;;;0.50;;
4821;SDS011;2425;47.794;13.068;2022-09-12T04:12:03;0.50;;;0.50;;
4821;SDS011;2425;47.794;13.068;2022-09-12T04:14:30;0.67;;;0.67;;
4821;SDS011;2425;47.794;13.068;2022-09-12T04:16:57;0.57;;;0.57;;
4821;SDS011;2425;47.794;13.068;2022-09-12T04:19:24;0.60;;;0.60;;
4821;SDS011;2425;47.794;13.068;2022-09-12T04:21:50;0.67;;;0.67;;
4821;SDS011;2425;47.794;13.068;2022-09-12T04:24:17;0.50;;;0.50;;
4821;SDS011;2425;47.794;13.068;2022-09-12T04:26:45;0.60;;;0.60;;
4821;SDS011;2425;47.794;13.068;2022-09-12T04:29:12;0.57;;;0.57;;
4821;SDS011;2425;47.794;13.068;2022-09-12T04:31:39;0.50;;;0.50;;
4821;SDS011;2425;47.794;13.068;2022-09-12T04:34:06;0.60;;;0.60;;
4821;SDS011;2425;47.794;13.068;2022-09-12T04:36:33;0.43;;;0.43;;
4821;SDS011;2425;47.794;13.068;2022-09-12T04:39:01;0.70;;;0.70;;
4821;SDS011;2425;47.794;13.068;2022-09-12T04:41:29;0.50;;;0.50;;
4821;SDS011;2425;47.794;13.068;2022-09-12T04:43:59;0.60;;;0.60;;
4821;SDS011;2425;47.794;13.068;2022-09-12T04:46:27;0.50;;;0.50;;
4821;SDS011;2425;47.794;13.068;2022-09-12T04:48:55;0.50;;;0.50;;
4821;SDS011;2425;47.794;13.068;2022-09-12T04:51:22;0.50;;;0.50;;
4821;SDS011;2425;47.794;13.068;2022-09-12T04:53:52;0.57;;;0.57;;
4821;SDS011;2425;47.794;13.068;2022-09-12T04:56:20;0.70;;;0.70;;
4821;SDS011;2425;47.794;13.068;2022-09-12T04:58:47;1.90;;;0.60;;
4821;SDS011;2425;47.794;13.068;2022-09-12T05:01:16;0.60;;;0.60;;
4821;SDS011;2425;47.794;13.068;2022-09-12T05:03:43;0.60;;;0.60;;
4821;SDS011;2425;47.794;13.068;2022-09-12T05:06:12;0.40;;;0.40;;
4821;SDS011;2425;47.794;13.068;2022-09-12T05:08:40;0.50;;;0.50;;
4821;SDS011;2425;47.794;13.068;2022-09-12T05:11:07;5.00;;;0.50;;
4821;SDS011;2425;47.794;13.068;2022-09-12T05:13:36;0.60;;;0.60;;
4821;SDS011;2425;47.794;13.068;2022-09-12T05:16:03;0.47;;;0.47;;
4821;SDS011;2425;47.794;13.068;2022-09-12T05:18:32;0.60;;;0.60;;
4821;SDS011;2425;47.794;13.068;2022-09-12T05:21:00;1.23;;;0.60;;
4821;SDS011;2425;47.794;13.068;2022-09-12T05:23:28;0.90;;;0.60;;
4821;SDS011;2425;47.794;13.068;2022-09-12T05:25:56;0.80;;;0.60;;
4821;SDS011;2425;47.794;13.068;2022-09-12T05:28:24;0.40;;;0.40;;
4821;SDS011;2425;47.794;13.068;2022-09-12T05:30:58;0.70;;;0.70;;
4821;SDS011;2425;47.794;13.068;2022-09-12T05:33:25;1.07;;;0.50;;
4821;SDS011;2425;47.794;13.068;2022-09-12T05:35:54;0.40;;;0.40;;
4821;SDS011;2425;47.794;13.068;2022-09-12T05:38:21;0.40;;;0.40;;
4821;SDS011;2425;47.794;13.068;2022-09-12T05:40:48;0.50;;;0.50;;
4821;SDS011;2425;47.794;13.068;2022-09-12T05:43:15;0.60;;;0.60;;
4821;SDS011;2425;47.794;13.068;2022-09-12T05:45:41;0.50;;;0.50;;
4821;SDS011;2425;47.794;13.068;2022-09-12T05:48:08;0.60;;;0.60;;
4821;SDS011;2425;47.794;13.068;2022-09-12T05:50:35;0.60;;;0.60;;
4821;SDS011;2425;47.794;13.068;2022-09-12T05:53:03;0.40;;;0.40;;
4821;SDS011;2425;47.794;13.068;2022-09-12T05:55:30;0.50;;;0.50;;
4821;SDS011;2425;47.794;13.068;2022-09-12T05:57:57;0.50;;;0.50;;
4821;SDS011;2425;47.794;13.068;2022-09-12T06:00:23;0.40;;;0.40;;
4821;SDS011;2425;47.794;13.068;2022-09-12T06:02:50;0.50;;;0.50;;
4821;SDS011;2425;47.794;13.068;2022-09-12T06:05:18;0.60;;;0.60;;
4821;SDS011;2425;47.794;13.068;2022-09-12T06:07:44;2.10;;;0.60;;
4821;SDS011;2425;47.794;13.068;2022-09-12T06:10:13;0.47;;;0.47;;
4821;SDS011;2425;47.794;13.068;2022-09-12T06:12:41;0.60;;;0.60;;
4821;SDS011;2425;47.794;13.068;2022-09-12T06:15:08;0.50;;;0.50;;
4821;SDS011;2425;47.794;13.068;2022-09-12T06:17:35;0.87;;;0.87;;
4821;SDS011;2425;47.794;13.068;2022-09-12T06:20:02;0.50;;;0.50;;
4821;SDS011;2425;47.794;13.068;2022-09-12T06:22:29;0.50;;;0.50;;
4821;SDS011;2425;47.794;13.068;2022-09-12T06:24:56;0.50;;;0.50;;
4821;SDS011;2425;47.794;13.068;2022-09-12T06:27:24;0.63;;;0.63;;
4821;SDS011;2425;47.794;13.068;2022-09-12T06:29:51;0.50;;;0.50;;
4821;SDS011;2425;47.794;13.068;2022-09-12T06:32:17;0.50;;;0.50;;
4821;SDS011;2425;47.794;13.068;2022-09-12T06:34:44;0.47;;;0.47;;
4821;SDS011;2425;47.794;13.068;2022-09-12T06:37:12;0.70;;;0.70;;
4821;SDS011;2425;47.794;13.068;2022-09-12T06:39:39;1.40;;;0.50;;
4821;SDS011;2425;47.794;13.068;2022-09-12T06:42:06;0.63;;;0.50;;
4821;SDS011;2425;47.794;13.068;2022-09-12T06:44:35;0.83;;;0.83;;
4821;SDS011;2425;47.794;13.068;2022-09-12T06:47:02;0.60;;;0.60;;
4821;SDS011;2425;47.794;13.068;2022-09-12T06:49:29;0.50;;;0.50;;
4821;SDS011;2425;47.794;13.068;2022-09-12T06:51:56;0.80;;;0.80;;
4821;SDS011;2425;47.794;13.068;2022-09-12T06:54:22;0.60;;;0.60;;
4821;SDS011;2425;47.794;13.068;2022-09-12T06:56:50;0.97;;;0.83;;
4821;SDS011;2425;47.794;13.068;2022-09-12T06:59:17;0.50;;;0.50;;
4821;SDS011;2425;47.794;13.068;2022-09-12T07:01:45;0.93;;;0.93;;
4821;SDS011;2425;47.794;13.068;2022-09-12T07:04:12;0.70;;;0.70;;
4821;SDS011;2425;47.794;13.068;2022-09-12T07:06:39;0.93;;;0.70;;
4821;SDS011;2425;47.794;13.068;2022-09-12T07:09:09;0.77;;;0.77;;
4821;SDS011;2425;47.794;13.068;2022-09-12T07:11:37;0.53;;;0.53;;
4821;SDS011;2425;47.794;13.068;2022-09-12T07:14:06;1.90;;;0.70;;
4821;SDS011;2425;47.794;13.068;2022-09-12T07:16:33;0.70;;;0.70;;
4821;SDS011;2425;47.794;13.068;2022-09-12T07:19:02;0.60;;;0.60;;
4821;SDS011;2425;47.794;13.068;2022-09-12T07:21:30;3.80;;;0.90;;
4821;SDS011;2425;47.794;13.068;2022-09-12T07:23:57;4.90;;;0.93;;
4821;SDS011;2425;47.794;13.068;2022-09-12T07:26:26;3.27;;;1.20;;
4821;SDS011;2425;47.794;13.068;2022-09-12T07:28:54;2.87;;;1.33;;
4821;SDS011;2425;47.794;13.068;2022-09-12T07:31:22;1.10;;;1.10;;
4821;SDS011;2425;47.794;13.068;2022-09-12T07:33:50;1.83;;;1.37;;
4821;SDS011;2425;47.794;13.068;2022-09-12T07:36:19;2.77;;;1.37;;
4821;SDS011;2425;47.794;13.068;2022-09-12T07:38:47;2.57;;;1.50;;
4821;SDS011;2425;47.794;13.068;2022-09-12T07:41:15;1.87;;;1.60;;
4821;SDS011;2425;47.794;13.068;2022-09-12T07:43:44;1.30;;;1.30;;
4821;SDS011;2425;47.794;13.068;2022-09-12T07:46:11;2.30;;;1.57;;
4821;SDS011;2425;47.794;13.068;2022-09-12T07:48:39;2.10;;;1.90;;
4821;SDS011;2425;47.794;13.068;2022-09-12T07:51:07;1.70;;;1.60;;
4821;SDS011;2425;47.794;13.068;2022-09-12T07:53:36;1.70;;;1.60;;
4821;SDS011;2425;47.794;13.068;2022-09-12T07:56:04;2.30;;;1.50;;
4821;SDS011;2425;47.794;13.068;2022-09-12T07:58:32;3.60;;;2.17;;
4821;SDS011;2425;47.794;13.068;2022-09-12T08:01:01;1.83;;;1.83;;
4821;SDS011;2425;47.794;13.068;2022-09-12T08:03:28;2.23;;;1.87;;
4821;SDS011;2425;47.794;13.068;2022-09-12T08:06:01;12.30;;;2.03;;
4821;SDS011;2425;47.794;13.068;2022-09-12T08:08:28;1.57;;;1.47;;
4821;SDS011;2425;47.794;13.068;2022-09-12T08:10:57;3.43;;;2.23;;
4821;SDS011;2425;47.794;13.068;2022-09-12T08:13:24;1.93;;;1.63;;
4821;SDS011;2425;47.794;13.068;2022-09-12T08:15:51;16.03;;;1.20;;
4821;SDS011;2425;47.794;13.068;2022-09-12T08:18:17;4.83;;;1.83;;
4821;SDS011;2425;47.794;13.068;2022-09-12T08:20:44;3.40;;;1.60;;
4821;SDS011;2425;47.794;13.068;2022-09-12T08:23:11;6.60;;;1.80;;
4821;SDS011;2425;47.794;13.068;2022-09-12T08:25:38;2.17;;;1.97;;
4821;SDS011;2425;47.794;13.068;2022-09-12T08:28:06;1.80;;;1.70;;
4821;SDS011;2425;47.794;13.068;2022-09-12T08:30:33;1.60;;;1.50;;
4821;SDS011;2425;47.794;13.068;2022-09-12T08:33:00;2.57;;;1.80;;
4821;SDS011;2425;47.794;13.068;2022-09-12T08:35:27;1.90;;;1.83;;
4821;SDS011;2425;47.794;13.068;2022-09-12T08:37:54;2.20;;;1.80;;
4821;SDS011;2425;47.794;13.068;2022-09-12T08:40:20;4.00;;;1.60;;
4821;SDS011;2425;47.794;13.068;2022-09-12T08:42:51;1.70;;;1.60;;
4821;SDS011;2425;47.794;13.068;2022-09-12T08:45:22;1.47;;;1.37;;
4821;SDS011;2425;47.794;13.068;2022-09-12T08:47:52;2.70;;;1.67;;
4821;SDS011;2425;47.794;13.068;2022-09-12T08:50:20;1.80;;;1.70;;
4821;SDS011;2425;47.794;13.068;2022-09-12T08:52:52;1.73;;;1.60;;
4821;SDS011;2425;47.794;13.068;2022-09-12T08:55:29;1.70;;;1.60;;
4821;SDS011;2425;47.794;13.068;2022-09-12T08:57:57;1.40;;;1.40;;
4821;SDS011;2425;47.794;13.068;2022-09-12T09:00:28;1.83;;;1.80;;
4821;SDS011;2425;47.794;13.068;2022-09-12T09:03:08;1.30;;;1.30;;
4821;SDS011;2425;47.794;13.068;2022-09-12T09:05:48;1.93;;;1.60;;
4821;SDS011;2425;47.794;13.068;2022-09-12T09:11:07;5.40;;;1.50;;
4821;SDS011;2425;47.794;13.068;2022-09-12T09:13:48;1.33;;;1.23;;
4821;SDS011;2425;47.794;13.068;2022-09-12T09:16:42;1.30;;;1.17;;
4821;SDS011;2425;47.794;13.068;2022-09-12T09:19:10;1.83;;;1.73;;
4821;SDS011;2425;47.794;13.068;2022-09-12T09:21:41;1.27;;;1.27;;
4821;SDS011;2425;47.794;13.068;2022-09-12T09:24:11;2.50;;;1.23;;
4821;SDS011;2425;47.794;13.068;2022-09-12T09:26:42;4.13;;;1.10;;
4821;SDS011;2425;47.794;13.068;2022-09-12T09:29:13;1.20;;;1.10;;
4821;SDS011;2425;47.794;13.068;2022-09-12T09:31:45;2.33;;;1.53;;
4821;SDS011;2425;47.794;13.068;2022-09-12T09:34:16;1.13;;;1.13;;
4821;SDS011;2425;47.794;13.068;2022-09-12T09:36:47;2.10;;;1.30;;
4821;SDS011;2425;47.794;13.068;2022-09-12T09:39:18;1.67;;;1.60;;
4821;SDS011;2425;47.794;13.068;2022-09-12T09:41:55;1.77;;;1.67;;
4821;SDS011;2425;47.794;13.068;2022-09-12T09:44:31;1.33;;;1.33;;
4821;SDS011;2425;47.794;13.068;2022-09-12T09:46:59;1.70;;;1.43;;
4821;SDS011;2425;47.794;13.068;2022-09-12T09:49:27;1.23;;;1.23;;
4821;SDS011;2425;47.794;13.068;2022-09-12T09:51:55;1.10;;;1.10;;
4821;SDS011;2425;47.794;13.068;2022-09-12T09:54:23;2.57;;;1.50;;
4821;SDS011;2425;47.794;13.068;2022-09-12T09:56:51;1.27;;;1.17;;
4821;SDS011;2425;47.794;13.068;2022-09-12T09:59:18;1.47;;;1.37;;
4821;SDS011;2425;47.794;13.068;2022-09-12T10:01:51;1.27;;;1.27;;
4821;SDS011;2425;47.794;13.068;2022-09-12T10:04:21;1.00;;;1.00;;
4821;SDS011;2425;47.794;13.068;2022-09-12T10:06:50;1.40;;;1.40;;
4821;SDS011;2425;47.794;13.068;2022-09-12T10:09:22;1.37;;;1.37;;
4821;SDS011;2425;47.794;13.068;2022-09-12T10:11:50;1.10;;;1.10;;
4821;SDS011;2425;47.794;13.068;2022-09-12T10:14:25;1.60;;;1.60;;
4821;SDS011;2425;47.794;13.068;2022-09-12T10:16:59;1.70;;;1.60;;
4821;SDS011;2425;47.794;13.068;2022-09-12T10:19:34;1.60;;;1.60;;
4821;SDS011;2425;47.794;13.068;2022-09-12T10:22:01;1.50;;;1.50;;
4821;SDS011;2425;47.794;13.068;2022-09-12T10:24:29;1.57;;;1.57;;
4821;SDS011;2425;47.794;13.068;2022-09-12T10:27:05;1.60;;;1.50;;
4821;SDS011;2425;47.794;13.068;2022-09-12T10:29:34;1.73;;;1.63;;
4821;SDS011;2425;47.794;13.068;2022-09-12T10:32:10;1.93;;;1.87;;
4821;SDS011;2425;47.794;13.068;2022-09-12T10:34:41;1.50;;;1.50;;
4821;SDS011;2425;47.794;13.068;2022-09-12T10:37:09;1.57;;;1.57;;
4821;SDS011;2425;47.794;13.068;2022-09-12T10:39:48;1.70;;;1.60;;
4821;SDS011;2425;47.794;13.068;2022-09-12T10:42:18;1.80;;;1.80;;
4821;SDS011;2425;47.794;13.068;2022-09-12T10:45:16;1.90;;;1.80;;
4821;SDS011;2425;47.794;13.068;2022-09-12T10:47:48;2.10;;;2.00;;
4821;SDS011;2425;47.794;13.068;2022-09-12T10:50:20;2.03;;;1.93;;
4821;SDS011;2425;47.794;13.068;2022-09-12T10:52:48;1.73;;;1.73;;
4821;SDS011;2425;47.794;13.068;2022-09-12T10:55:15;1.83;;;1.83;;
4821;SDS011;2425;47.794;13.068;2022-09-12T10:57:48;1.83;;;1.73;;
4821;SDS011;2425;47.794;13.068;2022-09-12T11:00:20;1.83;;;1.80;;
4821;SDS011;2425;47.794;13.068;2022-09-12T11:02:56;2.10;;;1.90;;
4821;SDS011;2425;47.794;13.068;2022-09-12T11:11:03;2.80;;;2.00;;
4821;SDS011;2425;47.794;13.068;2022-09-12T11:13:39;1.80;;;1.73;;
4821;SDS011;2425;47.794;13.068;2022-09-12T11:16:18;1.53;;;1.43;;
4821;SDS011;2425;47.794;13.068;2022-09-12T11:21:49;2.07;;;1.90;;
4821;SDS011;2425;47.794;13.068;2022-09-12T11:24:25;1.70;;;1.70;;
4821;SDS011;2425;47.794;13.068;2022-09-12T11:27:10;3.13;;;1.90;;
4821;SDS011;2425;47.794;13.068;2022-09-12T11:29:48;1.80;;;1.80;;
4821;SDS011;2425;47.794;13.068;2022-09-12T11:35:24;1.87;;;1.80;;
4821;SDS011;2425;47.794;13.068;2022-09-12T11:40:52;1.67;;;1.67;;
4821;SDS011;2425;47.794;13.068;2022-09-12T11:43:22;2.35;;;2.25;;
4821;SDS011;2425;47.794;13.068;2022-09-12T11:45:53;2.20;;;2.10;;
4821;SDS011;2425;47.794;13.068;2022-09-12T11:48:25;2.37;;;2.27;;
4821;SDS011;2425;47.794;13.068;2022-09-12T11:50:59;3.40;;;2.33;;
4821;SDS011;2425;47.794;13.068;2022-09-12T11:53:30;3.73;;;2.27;;
4821;SDS011;2425;47.794;13.068;2022-09-12T11:56:01;1.87;;;1.80;;
4821;SDS011;2425;47.794;13.068;2022-09-12T11:58:32;3.57;;;2.30;;
4821;SDS011;2425;47.794;13.068;2022-09-12T12:01:02;2.00;;;1.90;;
4821;SDS011;2425;47.794;13.068;2022-09-12T12:03:36;2.40;;;2.30;;
4821;SDS011;2425;47.794;13.068;2022-09-12T12:06:09;3.20;;;2.30;;
4821;SDS011;2425;47.794;13.068;2022-09-12T12:08:39;2.60;;;2.50;;
4821;SDS011;2425;47.794;13.068;2022-09-12T12:11:07;3.67;;;2.57;;
4821;SDS011;2425;47.794;13.068;2022-09-12T12:13:34;2.33;;;2.23;;
4821;SDS011;2425;47.794;13.068;2022-09-12T12:16:04;6.57;;;2.27;;
4821;SDS011;2425;47.794;13.068;2022-09-12T12:18:32;2.00;;;2.00;;
4821;SDS011;2425;47.794;13.068;2022-09-12T12:21:19;1.87;;;1.80;;
4821;SDS011;2425;47.794;13.068;2022-09-12T12:24:10;2.00;;;1.90;;
4821;SDS011;2425;47.794;13.068;2022-09-12T12:26:41;2.60;;;2.50;;
4821;SDS011;2425;47.794;13.068;2022-09-12T12:29:34;1.97;;;1.87;;
4821;SDS011;2425;47.794;13.068;2022-09-12T12:32:22;2.13;;;2.03;;
4821;SDS011;2425;47.794;13.068;2022-09-12T12:34:50;2.00;;;2.00;;
4821;SDS011;2425;47.794;13.068;2022-09-12T12:40:23;2.33;;;2.23;;
4821;SDS011;2425;47.794;13.068;2022-09-12T12:43:02;2.40;;;2.30;;
4821;SDS011;2425;47.794;13.068;2022-09-12T12:45:48;1.93;;;1.83;;
4821;SDS011;2425;47.794;13.068;2022-09-12T12:51:29;1.87;;;1.87;;
4821;SDS011;2425;47.794;13.068;2022-09-12T12:53:59;2.30;;;2.20;;
4821;SDS011;2425;47.794;13.068;2022-09-12T12:56:34;2.13;;;2.03;;
4821;SDS011;2425;47.794;13.068;2022-09-12T12:59:11;2.07;;;1.97;;
4821;SDS011;2425;47.794;13.068;2022-09-12T13:01:43;2.40;;;2.30;;
4821;SDS011;2425;47.794;13.068;2022-09-12T13:04:11;2.10;;;2.00;;
4821;SDS011;2425;47.794;13.068;2022-09-12T13:06:41;1.80;;;1.70;;
4821;SDS011;2425;47.794;13.068;2022-09-12T13:09:16;2.07;;;1.97;;
4821;SDS011;2425;47.794;13.068;2022-09-12T13:11:47;1.40;;;1.40;;
4821;SDS011;2425;47.794;13.068;2022-09-12T13:14:46;2.20;;;2.10;;
4821;SDS011;2425;47.794;13.068;2022-09-12T13:17:17;1.93;;;1.83;;
4821;SDS011;2425;47.794;13.068;2022-09-12T13:19:51;2.10;;;2.00;;
4821;SDS011;2425;47.794;13.068;2022-09-12T13:22:21;2.10;;;2.00;;
4821;SDS011;2425;47.794;13.068;2022-09-12T13:24:48;1.73;;;1.73;;
4821;SDS011;2425;47.794;13.068;2022-09-12T13:27:18;1.70;;;1.70;;
4821;SDS011;2425;47.794;13.068;2022-09-12T13:29:47;1.87;;;1.77;;
4821;SDS011;2425;47.794;13.068;2022-09-12T13:32:14;2.20;;;2.10;;
4821;SDS011;2425;47.794;13.068;2022-09-12T13:34:46;1.80;;;1.80;;
4821;SDS011;2425;47.794;13.068;2022-09-12T13:37:28;1.90;;;1.90;;
4821;SDS011;2425;47.794;13.068;2022-09-12T13:40:09;2.07;;;1.97;;
4821;SDS011;2425;47.794;13.068;2022-09-12T13:42:45;1.70;;;1.70;;
4821;SDS011;2425;47.794;13.068;2022-09-12T13:45:14;1.73;;;1.73;;
4821;SDS011;2425;47.794;13.068;2022-09-12T13:47:45;2.00;;;1.90;;
4821;SDS011;2425;47.794;13.068;2022-09-12T13:50:14;2.10;;;2.00;;
4821;SDS011;2425;47.794;13.068;2022-09-12T13:52:44;1.70;;;1.70;;
4821;SDS011;2425;47.794;13.068;2022-09-12T13:55:21;1.70;;;1.70;;
4821;SDS011;2425;47.794;13.068;2022-09-12T13:57:59;1.70;;;1.60;;
4821;SDS011;2425;47.794;13.068;2022-09-12T14:00:27;1.67;;;1.67;;
4821;SDS011;2425;47.794;13.068;2022-09-12T14:02:56;1.43;;;1.43;;
4821;SDS011;2425;47.794;13.068;2022-09-12T14:05:37;1.77;;;1.77;;
4821;SDS011;2425;47.794;13.068;2022-09-12T14:08:05;1.77;;;1.67;;
4821;SDS011;2425;47.794;13.068;2022-09-12T14:10:33;1.70;;;1.70;;
4821;SDS011;2425;47.794;13.068;2022-09-12T14:13:03;1.63;;;1.57;;
4821;SDS011;2425;47.794;13.068;2022-09-12T14:15:36;1.57;;;1.57;;
4821;SDS011;2425;47.794;13.068;2022-09-12T14:18:04;1.53;;;1.53;;
4821;SDS011;2425;47.794;13.068;2022-09-12T14:20:34;1.30;;;1.30;;
4821;SDS011;2425;47.794;13.068;2022-09-12T14:23:03;1.90;;;1.90;;
4821;SDS011;2425;47.794;13.068;2022-09-12T14:25:34;1.77;;;1.70;;
4821;SDS011;2425;47.794;13.068;2022-09-12T14:28:04;1.20;;;1.20;;
4821;SDS011;2425;47.794;13.068;2022-09-12T14:30:32;1.80;;;1.70;;
4821;SDS011;2425;47.794;13.068;2022-09-12T14:35:46;12.00;;;1.50;;
4821;SDS011;2425;47.794;13.068;2022-09-12T14:38:17;1.43;;;1.43;;
4821;SDS011;2425;47.794;13.068;2022-09-12T14:40:48;1.70;;;1.60;;
4821;SDS011;2425;47.794;13.068;2022-09-12T14:43:19;1.30;;;1.30;;
4821;SDS011;2425;47.794;13.068;2022-09-12T14:45:53;1.47;;;1.47;;
4821;SDS011;2425;47.794;13.068;2022-09-12T14:48:23;1.30;;;1.30;;
4821;SDS011;2425;47.794;13.068;2022-09-12T14:50:51;1.40;;;1.40;;
4821;SDS011;2425;47.794;13.068;2022-09-12T14:53:22;1.63;;;1.63;;
4821;SDS011;2425;47.794;13.068;2022-09-12T14:55:51;2.00;;;1.90;;
4821;SDS011;2425;47.794;13.068;2022-09-12T14:58:24;1.70;;;1.60;;
4821;SDS011;2425;47.794;13.068;2022-09-12T15:00:53;1.43;;;1.43;;
4821;SDS011;2425;47.794;13.068;2022-09-12T15:03:25;1.63;;;1.60;;
4821;SDS011;2425;47.794;13.068;2022-09-12T15:05:54;1.30;;;1.30;;
4821;SDS011;2425;47.794;13.068;2022-09-12T15:08:21;1.70;;;1.70;;
4821;SDS011;2425;47.794;13.068;2022-09-12T15:10:48;1.70;;;1.70;;
4821;SDS011;2425;47.794;13.068;2022-09-12T15:13:16;1.60;;;1.60;;
4821;SDS011;2425;47.794;13.068;2022-09-12T15:15:47;1.43;;;1.43;;
4821;SDS011;2425;47.794;13.068;2022-09-12T15:18:15;1.50;;;1.50;;
4821;SDS011;2425;47.794;13.068;2022-09-12T15:20:43;1.50;;;1.50;;
4821;SDS011;2425;47.794;13.068;2022-09-12T15:23:15;1.47;;;1.43;;
4821;SDS011;2425;47.794;13.068;2022-09-12T15:25:44;1.20;;;1.20;;
4821;SDS011;2425;47.794;13.068;2022-09-12T15:28:15;1.53;;;1.53;;
4821;SDS011;2425;47.794;13.068;2022-09-12T15:30:43;1.33;;;1.33;;
4821;SDS011;2425;47.794;13.068;2022-09-12T15:33:13;1.27;;;1.27;;
4821;SDS011;2425;47.794;13.068;2022-09-12T15:35:40;2.88;;;1.50;;
4821;SDS011;2425;47.794;13.068;2022-09-12T15:38:07;2.77;;;1.50;;
4821;SDS011;2425;47.794;13.068;2022-09-12T15:40:33;1.20;;;1.20;;
4821;SDS011;2425;47.794;13.068;2022-09-12T15:43:00;3.70;;;1.20;;
4821;SDS011;2425;47.794;13.068;2022-09-12T15:45:28;1.70;;;1.60;;
4821;SDS011;2425;47.794;13.068;2022-09-12T15:47:57;1.73;;;1.60;;
4821;SDS011;2425;47.794;13.068;2022-09-12T15:50:24;1.47;;;1.47;;
4821;SDS011;2425;47.794;13.068;2022-09-12T15:52:52;1.30;;;1.20;;